Terminal Aerodrome Forecast
Issued by NWS

Home | Current Version | Previous Version | Graphics & Text | Print | Product List | Glossary On
Versions: 1 2 3 4 5 6 7 8 9 10 11 12 13 14 15 16 17 18 19 20
706
FTUS43 KIWX 260226 AAA
TAFSBN
TAF AMD
KSBN 260226Z 2602/2624 30007KT P6SM SCT005
      TEMPO 2602/2605 BKN005
     FM260500 29005KT 3SM BR BKN005
     FM261200 VRB03KT 5SM BR BKN010
     FM261400 VRB03KT P6SM BKN035
     FM262000 15006KT P6SM FEW030 BKN070=

USA.gov is the U.S. government's official web portal to all federal, state and local government web resources and services.